createdAt,value
2022-08-03T00:00:19.153Z,72682.22
2022-08-03T00:00:54.355Z,72682.22
2022-08-03T00:01:27.291Z,72678.22
2022-08-03T00:01:59.886Z,72678.22
2022-08-03T00:02:34.890Z,72674.25
2022-08-03T00:03:07.483Z,72680.22
2022-08-03T00:03:40.651Z,72682.22
2022-08-03T00:04:15.790Z,72682.22
2022-08-03T00:04:48.300Z,72674.25
2022-08-03T00:05:20.955Z,72682.22
2022-08-03T00:06:03.713Z,72686.22
2022-08-03T00:06:38.247Z,72678.22
2022-08-03T00:07:13.296Z,72682.22
2022-08-03T00:07:45.684Z,72680.22
2022-08-03T00:08:18.077Z,72678.22
2022-08-03T00:08:54.689Z,72682.22
2022-08-03T00:09:27.090Z,72678.22
2022-08-03T00:10:08.882Z,72674.25
2022-08-03T00:10:46.536Z,72680.22
2022-08-03T00:11:19.067Z,72674.25
2022-08-03T00:11:51.512Z,72682.22
2022-08-03T00:12:26.575Z,72678.22
2022-08-03T00:12:58.998Z,72682.22
2022-08-03T00:13:34.001Z,72678.22
2022-08-03T00:14:06.908Z,72682.22
2022-08-03T00:14:39.350Z,72676.25
2022-08-03T00:15:16.486Z,72678.22
2022-08-03T00:15:52.043Z,72678.22
2022-08-03T00:16:25.367Z,72678.22
2022-08-03T00:16:58.280Z,72682.22
2022-08-03T00:17:53.099Z,72674.25
2022-08-03T00:18:25.959Z,72678.22
2022-08-03T00:19:01.145Z,72682.22
2022-08-03T00:19:33.579Z,72682.22
2022-08-03T00:20:06.825Z,72680.22
2022-08-03T00:20:39.295Z,72678.22
2022-08-03T00:21:14.637Z,72678.22
2022-08-03T00:21:48.151Z,72682.22
2022-08-03T00:22:20.539Z,72682.22
2022-08-03T00:22:55.555Z,72680.22
2022-08-03T00:23:50.941Z,72686.22
2022-08-03T00:24:23.600Z,72682.22
2022-08-03T00:24:55.997Z,72686.22
2022-08-03T00:25:28.543Z,72686.22
2022-08-03T00:26:06.507Z,72682.22
2022-08-03T00:26:38.923Z,72688.22
2022-08-03T00:27:11.334Z,72684.22
2022-08-03T00:27:51.648Z,72686.22
2022-08-03T00:28:24.043Z,72690.22
2022-08-03T00:28:59.526Z,72686.22
2022-08-03T00:29:34.484Z,72682.22
2022-08-03T00:30:29.420Z,72686.22
2022-08-03T00:31:06.070Z,72686.22
2022-08-03T00:31:52.554Z,72688.22
2022-08-03T00:32:25.556Z,72686.22
2022-08-03T00:33:02.352Z,72682.22
2022-08-03T00:33:58.888Z,72682.22
2022-08-03T00:34:36.498Z,72682.22
2022-08-03T00:35:35.149Z,72682.22
2022-08-03T00:36:09.743Z,72678.22
2022-08-03T00:36:42.145Z,72680.22
2022-08-03T00:37:17.224Z,72682.22
2022-08-03T00:37:49.631Z,72682.22
2022-08-03T00:38:22.022Z,72680.22
2022-08-03T00:38:57.258Z,72674.25
2022-08-03T00:39:29.703Z,72682.22
2022-08-03T00:40:03.567Z,72680.22
2022-08-03T00:40:40.539Z,72678.22
2022-08-03T00:41:15.731Z,72678.22
2022-08-03T00:41:49.000Z,72674.25
2022-08-03T00:42:24.006Z,72670.25
2022-08-03T00:43:02.739Z,72678.22
2022-08-03T00:43:35.132Z,72676.25
2022-08-03T00:44:10.351Z,72674.25
2022-08-03T00:44:43.802Z,72674.25
2022-08-03T00:45:16.268Z,72678.22
2022-08-03T00:45:51.779Z,72674.25
2022-08-03T00:46:25.160Z,72674.25
2022-08-03T00:46:57.656Z,72674.25
2022-08-03T00:47:30.075Z,72676.25
2022-08-03T00:48:06.236Z,72674.25
2022-08-03T00:48:55.785Z,72680.22
2022-08-03T00:49:31.395Z,72674.25
2022-08-03T00:50:04.249Z,72674.25
2022-08-03T00:50:39.075Z,72676.25
2022-08-03T00:51:14.140Z,72674.25
2022-08-03T00:51:46.703Z,72676.25
2022-08-03T00:52:19.311Z,72674.25
2022-08-03T00:52:57.623Z,72680.22
2022-08-03T00:53:30.093Z,72678.22
2022-08-03T00:54:02.526Z,72678.22
2022-08-03T00:54:37.719Z,72680.22
2022-08-03T00:55:10.891Z,72672.25
2022-08-03T00:55:44.492Z,72674.25
2022-08-03T00:56:22.335Z,72678.22
2022-08-03T00:57:00.102Z,72680.22
2022-08-03T00:57:33.491Z,72674.25
2022-08-03T00:58:11.068Z,72678.22
2022-08-03T00:58:46.088Z,72674.25
2022-08-03T00:59:19.121Z,72674.25
2022-08-03T00:59:54.112Z,72674.25
2022-08-03T01:00:27.681Z,72676.25
2022-08-03T01:01:04.840Z,72678.22
2022-08-03T01:01:37.415Z,72678.22
2022-08-03T01:02:09.883Z,72676.25
2022-08-03T01:02:45.123Z,72674.25
2022-08-03T01:03:17.535Z,72674.25
2022-08-03T01:03:49.918Z,72674.25
2022-08-03T01:04:25.050Z,72674.25
2022-08-03T01:04:57.511Z,72676.25
2022-08-03T01:05:30.487Z,72674.25
2022-08-03T01:06:11.183Z,72676.25
2022-08-03T01:06:49.359Z,72676.25
2022-08-03T01:07:28.672Z,72678.22
2022-08-03T01:08:07.068Z,72678.22
2022-08-03T01:08:45.147Z,72678.22
2022-08-03T01:09:22.784Z,72670.25
2022-08-03T01:10:04.224Z,72674.25
2022-08-03T01:10:41.810Z,72670.25
2022-08-03T01:11:26.479Z,72678.22
2022-08-03T01:12:04.326Z,72674.25
2022-08-03T01:12:39.540Z,72670.25
2022-08-03T01:14:03.589Z,72674.25
2022-08-03T01:14:21.605Z,72678.22
2022-08-03T01:15:06.412Z,72680.22
2022-08-03T01:15:42.349Z,72674.25
2022-08-03T01:16:21.751Z,72678.22
2022-08-03T01:17:02.835Z,72678.22
2022-08-03T01:17:39.136Z,72676.25
2022-08-03T01:18:19.102Z,72678.22
2022-08-03T01:18:56.390Z,72676.25
2022-08-03T01:19:41.155Z,72674.25
2022-08-03T01:20:16.632Z,72678.22
2022-08-03T01:20:51.533Z,72678.22
2022-08-03T01:21:28.530Z,72680.22
2022-08-03T01:22:15.822Z,72674.25
2022-08-03T01:23:04.252Z,72682.22
2022-08-03T01:23:49.923Z,72678.22
2022-08-03T01:24:35.764Z,72676.25
2022-08-03T01:25:16.393Z,72674.25
2022-08-03T01:26:02.951Z,72676.25
2022-08-03T01:26:54.239Z,72674.25
2022-08-03T01:27:34.335Z,72674.25
2022-08-03T01:28:23.451Z,72674.25
2022-08-03T01:29:05.240Z,72674.25
2022-08-03T01:30:05.982Z,72672.25
2022-08-03T01:30:38.694Z,72672.25
2022-08-03T01:31:12.299Z,72678.22
2022-08-03T01:32:58.964Z,72674.25
2022-08-03T01:33:01.108Z,72676.25
2022-08-03T01:33:39.541Z,72674.25
2022-08-03T01:34:15.434Z,72674.25
2022-08-03T01:34:52.235Z,72682.22
2022-08-03T01:35:31.130Z,72678.22
2022-08-03T01:36:05.827Z,72680.22
2022-08-03T01:36:41.867Z,72676.25
2022-08-03T01:37:19.967Z,72678.22
2022-08-03T01:37:55.031Z,72674.25
2022-08-03T01:38:35.189Z,72676.25
2022-08-03T01:39:09.644Z,72676.25
2022-08-03T01:39:43.193Z,72678.22
2022-08-03T01:40:18.962Z,72678.22
2022-08-03T01:40:52.339Z,72674.25
2022-08-03T01:41:32.386Z,72678.22
2022-08-03T01:42:09.850Z,72678.22
2022-08-03T01:42:43.431Z,72682.22
2022-08-03T01:43:55.494Z,72674.25
2022-08-03T01:44:29.713Z,72674.25
2022-08-03T01:45:07.069Z,72672.25
2022-08-03T01:45:42.703Z,72676.25
2022-08-03T01:46:15.608Z,72676.25
2022-08-03T01:46:50.147Z,72682.22
2022-08-03T01:47:25.702Z,72678.22
2022-08-03T01:47:58.509Z,72678.22
2022-08-03T01:48:31.290Z,72678.22
2022-08-03T01:49:09.325Z,72676.25
2022-08-03T01:49:44.698Z,72678.22
2022-08-03T01:50:19.814Z,72674.25
2022-08-03T01:50:55.128Z,72678.22
2022-08-03T01:51:57.975Z,72674.25
2022-08-03T01:52:21.179Z,72678.22
2022-08-03T01:52:57.039Z,72678.22
2022-08-03T01:53:30.352Z,72676.25
2022-08-03T01:54:03.142Z,72678.22
2022-08-03T01:54:41.283Z,72678.22
2022-08-03T01:55:14.054Z,72682.22
2022-08-03T01:55:48.121Z,72676.25
2022-08-03T01:56:23.894Z,72674.25
2022-08-03T01:56:57.723Z,72670.25
2022-08-03T01:57:31.279Z,72672.25
2022-08-03T01:58:08.089Z,72674.25
2022-08-03T01:58:41.566Z,72670.25
2022-08-03T01:59:16.140Z,72670.25
2022-08-03T01:59:52.890Z,72670.25
2022-08-03T02:00:28.193Z,72674.25
2022-08-03T02:01:02.038Z,72670.25
2022-08-03T02:02:28.536Z,72672.25
2022-08-03T02:02:34.609Z,72674.25
2022-08-03T02:03:08.047Z,72670.25
2022-08-03T02:03:59.972Z,72670.25
2022-08-03T02:04:33.956Z,72672.25
2022-08-03T02:05:11.029Z,72674.25
2022-08-03T02:05:46.919Z,72674.25
2022-08-03T02:07:00.030Z,72674.25
2022-08-03T02:07:14.799Z,72678.22
2022-08-03T02:07:51.098Z,72674.25
2022-08-03T02:08:24.972Z,72674.25
2022-08-03T02:08:57.567Z,72678.22
2022-08-03T02:09:30.451Z,72674.25
2022-08-03T02:10:07.453Z,72674.25
2022-08-03T02:10:41.427Z,72676.25
2022-08-03T02:11:13.838Z,72678.22
2022-08-03T02:11:49.960Z,72678.22
2022-08-03T02:12:25.370Z,72678.22
2022-08-03T02:13:00.982Z,72678.22
2022-08-03T02:13:34.050Z,72674.25
2022-08-03T02:14:07.031Z,72674.25
2022-08-03T02:14:44.210Z,72676.25
2022-08-03T02:15:17.586Z,72678.22
2022-08-03T02:15:53.317Z,72678.22
2022-08-03T02:16:29.222Z,72674.25
2022-08-03T02:17:01.981Z,72674.25
2022-08-03T02:17:39.193Z,72678.22
2022-08-03T02:18:16.547Z,72674.25
2022-08-03T02:18:49.306Z,72678.22
2022-08-03T02:19:22.127Z,72674.25
2022-08-03T02:19:57.722Z,72674.25
2022-08-03T02:20:33.278Z,72678.22
2022-08-03T02:21:11.051Z,72674.25
2022-08-03T02:21:57.135Z,72678.22
2022-08-03T02:22:34.425Z,72676.25
2022-08-03T02:23:09.806Z,72678.22
2022-08-03T02:23:42.283Z,72682.22
2022-08-03T02:24:14.696Z,72676.25
2022-08-03T02:24:51.030Z,72678.22
2022-08-03T02:25:23.914Z,72680.22
2022-08-03T02:25:59.891Z,72674.25
2022-08-03T02:26:40.222Z,72678.22
2022-08-03T02:27:18.100Z,72674.25
2022-08-03T02:27:53.421Z,72672.25
2022-08-03T02:28:33.090Z,72678.22
2022-08-03T02:29:09.525Z,72670.25
2022-08-03T02:29:43.468Z,72674.25
2022-08-03T02:30:18.558Z,72674.25
2022-08-03T02:30:55.743Z,72672.25
2022-08-03T02:31:31.503Z,72678.22
2022-08-03T02:32:07.079Z,72674.25
2022-08-03T02:32:43.329Z,72680.22
2022-08-03T02:33:20.279Z,72678.22
2022-08-03T02:33:57.474Z,72678.22
2022-08-03T02:34:30.396Z,72674.25
2022-08-03T02:35:07.950Z,72678.22
2022-08-03T02:35:40.536Z,72678.22
2022-08-03T02:36:15.331Z,72678.22
2022-08-03T02:36:53.299Z,72678.22
2022-08-03T02:37:28.137Z,72674.25
2022-08-03T02:38:03.658Z,72678.22
2022-08-03T02:38:40.715Z,72678.22
2022-08-03T02:39:16.590Z,72676.25
2022-08-03T02:39:52.182Z,72678.22
2022-08-03T02:40:27.776Z,72682.22
2022-08-03T02:41:01.768Z,72674.25
2022-08-03T02:41:38.733Z,72680.22
2022-08-03T02:42:15.831Z,72678.22
2022-08-03T02:42:50.367Z,72678.22
2022-08-03T02:43:24.104Z,72676.25
2022-08-03T02:44:05.958Z,72678.22
2022-08-03T02:44:40.403Z,72676.25
2022-08-03T02:45:14.213Z,72682.22
2022-08-03T02:45:52.358Z,72678.22
2022-08-03T02:46:31.375Z,72678.22
2022-08-03T02:47:08.056Z,72676.25
2022-08-03T02:47:54.482Z,72678.22
2022-08-03T02:48:29.713Z,72678.22
2022-08-03T02:49:41.038Z,72678.22
2022-08-03T02:49:59.349Z,72670.25
2022-08-03T02:50:32.077Z,72670.25
2022-08-03T02:51:05.203Z,72672.25
2022-08-03T02:51:40.945Z,72678.22
2022-08-03T02:52:16.910Z,72674.25
2022-08-03T02:52:50.494Z,72674.25
2022-08-03T02:53:26.484Z,72674.25
2022-08-03T02:54:01.202Z,72674.25
2022-08-03T02:54:34.218Z,72674.25
2022-08-03T02:55:11.871Z,72672.25
2022-08-03T02:55:45.710Z,72674.25
2022-08-03T02:56:19.172Z,72672.25
2022-08-03T02:56:55.554Z,72670.25
2022-08-03T02:57:28.975Z,72672.25
2022-08-03T02:58:01.810Z,72668.25
2022-08-03T02:58:37.222Z,72672.25
2022-08-03T02:59:10.630Z,72670.25
2022-08-03T02:59:43.546Z,72674.25
2022-08-03T03:00:27.879Z,72674.25
2022-08-03T03:01:04.128Z,72676.25
2022-08-03T03:01:39.986Z,72670.25
2022-08-03T03:02:15.856Z,72666.25
2022-08-03T03:02:48.560Z,72670.25
2022-08-03T03:03:21.771Z,72674.25
2022-08-03T03:04:02.706Z,72666.25
2022-08-03T03:04:35.930Z,72670.25
2022-08-03T03:05:56.235Z,72672.25
2022-08-03T03:06:06.855Z,72672.25
2022-08-03T03:06:40.181Z,72670.25
2022-08-03T03:07:13.296Z,72670.25
2022-08-03T03:07:52.110Z,72670.25
2022-08-03T03:08:29.262Z,72672.25
2022-08-03T03:09:02.075Z,72666.25
2022-08-03T03:09:40.332Z,72670.25
2022-08-03T03:10:16.910Z,72666.25
2022-08-03T03:10:55.317Z,72666.25
2022-08-03T03:11:35.933Z,72668.25
2022-08-03T03:12:14.417Z,72668.25
2022-08-03T03:12:49.285Z,72666.25
2022-08-03T03:13:26.958Z,72664.25
2022-08-03T03:14:03.533Z,72668.25
2022-08-03T03:14:37.280Z,72664.25
2022-08-03T03:15:13.967Z,72666.25
2022-08-03T03:15:47.975Z,72666.25
2022-08-03T03:16:20.845Z,72666.25
2022-08-03T03:17:07.961Z,72668.25
2022-08-03T03:17:40.419Z,72666.25
2022-08-03T03:18:13.406Z,72666.25
2022-08-03T03:18:49.943Z,72666.25
2022-08-03T03:19:23.786Z,72666.25
2022-08-03T03:19:57.075Z,72662.28
2022-08-03T03:20:30.692Z,72662.28
2022-08-03T03:21:08.157Z,72662.28
2022-08-03T03:21:40.742Z,72666.25
2022-08-03T03:22:14.864Z,72666.25
2022-08-03T03:22:57.142Z,72666.25
2022-08-03T03:23:30.431Z,72664.25
2022-08-03T03:24:03.278Z,72670.25
2022-08-03T03:24:42.946Z,72666.25
2022-08-03T03:25:15.447Z,72664.25
2022-08-03T03:25:48.233Z,72662.28
2022-08-03T03:26:27.292Z,72672.25
2022-08-03T03:26:59.893Z,72664.25
2022-08-03T03:27:35.451Z,72666.25
2022-08-03T03:28:12.416Z,72668.25
2022-08-03T03:28:49.002Z,72674.25
2022-08-03T03:29:22.955Z,72666.25
2022-08-03T03:30:01.143Z,72670.25
2022-08-03T03:30:33.959Z,72666.25
2022-08-03T03:31:09.891Z,72662.28
2022-08-03T03:31:45.038Z,72670.25
2022-08-03T03:32:20.529Z,72670.25
2022-08-03T03:32:58.166Z,72666.25
2022-08-03T03:33:33.314Z,72666.25
2022-08-03T03:34:06.047Z,72670.25
2022-08-03T03:34:42.182Z,72668.25
2022-08-03T03:35:20.183Z,72670.25
2022-08-03T03:35:52.956Z,72666.25
2022-08-03T03:36:30.592Z,72668.25
2022-08-03T03:37:03.187Z,72666.25
2022-08-03T03:37:35.731Z,72666.25
2022-08-03T03:38:13.227Z,72662.28
2022-08-03T03:38:48.743Z,72670.25
2022-08-03T03:39:23.267Z,72670.25
2022-08-03T03:40:01.025Z,72674.25
2022-08-03T03:40:36.166Z,72666.25
2022-08-03T03:41:12.805Z,72666.25
2022-08-03T03:41:47.983Z,72666.25
2022-08-03T03:42:20.641Z,72672.25
2022-08-03T03:42:53.841Z,72658.28
2022-08-03T03:43:35.238Z,72648.28
2022-08-03T03:44:07.890Z,72634.31
2022-08-03T03:44:43.790Z,72624.34
2022-08-03T03:45:19.135Z,72622.34
2022-08-03T03:46:00.973Z,72612.38
2022-08-03T03:46:36.014Z,72610.38
2022-08-03T03:47:08.502Z,72606.38
2022-08-03T03:47:47.123Z,72606.38
2022-08-03T03:48:22.898Z,72610.38
2022-08-03T03:48:58.365Z,72606.38
2022-08-03T03:49:31.878Z,72606.38
2022-08-03T03:50:07.126Z,72598.41
2022-08-03T03:50:42.278Z,72602.38
2022-08-03T03:51:14.724Z,72602.38
2022-08-03T03:51:47.181Z,72600.41
2022-08-03T03:52:26.278Z,72602.38
2022-08-03T03:53:01.646Z,72602.38
2022-08-03T03:53:36.890Z,72598.41
2022-08-03T03:54:11.975Z,72594.41
2022-08-03T03:54:45.987Z,72588.41
2022-08-03T03:55:19.131Z,72588.41
2022-08-03T03:56:02.375Z,72588.41
2022-08-03T03:56:35.233Z,72590.41
2022-08-03T03:57:07.942Z,72590.41
2022-08-03T03:57:48.208Z,72590.41
2022-08-03T03:58:21.999Z,72594.41
2022-08-03T03:58:57.404Z,72590.41
2022-08-03T03:59:32.793Z,72578.44
2022-08-03T04:00:09.985Z,72578.44
2022-08-03T04:00:45.404Z,72574.44
2022-08-03T04:01:20.911Z,72580.44
2022-08-03T04:01:59.174Z,72580.44
2022-08-03T04:02:31.899Z,72582.44
2022-08-03T04:03:09.736Z,72578.44
2022-08-03T04:03:42.245Z,72578.44
2022-08-03T04:04:29.629Z,72574.44
2022-08-03T04:05:17.078Z,72574.44
2022-08-03T04:06:07.199Z,72572.44
2022-08-03T04:06:57.348Z,72574.44
2022-08-03T04:08:00.330Z,72570.47
2022-08-03T04:08:52.714Z,72574.44
2022-08-03T04:09:40.842Z,72572.44
2022-08-03T04:10:33.363Z,72574.44
2022-08-03T04:11:12.551Z,72570.47
2022-08-03T04:11:49.835Z,72574.44
2022-08-03T04:12:26.355Z,72572.44
2022-08-03T04:12:59.950Z,72574.44
2022-08-03T04:13:34.662Z,72570.47
2022-08-03T04:14:12.925Z,72570.47
2022-08-03T04:14:46.775Z,72570.47
2022-08-03T04:15:20.118Z,72574.44
2022-08-03T04:15:53.102Z,72574.44
2022-08-03T04:16:31.035Z,72578.44
2022-08-03T04:17:05.636Z,72570.47
2022-08-03T04:17:38.023Z,72574.44
2022-08-03T04:18:14.443Z,72568.47
2022-08-03T04:18:52.672Z,72570.47
2022-08-03T04:19:29.094Z,72570.47
2022-08-03T04:20:02.134Z,72574.44
2022-08-03T04:20:38.637Z,72570.47
2022-08-03T04:21:12.431Z,72570.47
2022-08-03T04:21:48.627Z,72574.44
2022-08-03T04:22:28.070Z,72572.44
2022-08-03T04:23:00.843Z,72582.44
2022-08-03T04:23:35.047Z,72572.44
2022-08-03T04:24:12.674Z,72578.44
2022-08-03T04:24:51.759Z,72580.44
2022-08-03T04:25:27.609Z,72576.44
2022-08-03T04:26:04.542Z,72572.44
2022-08-03T04:26:39.850Z,72584.44
2022-08-03T04:27:16.294Z,72582.44
2022-08-03T04:28:07.960Z,72576.44
2022-08-03T04:28:49.441Z,72580.44
2022-08-03T04:29:23.147Z,72582.44
2022-08-03T04:29:55.854Z,72590.41
2022-08-03T04:30:32.126Z,72582.44
2022-08-03T04:31:05.179Z,72586.44
2022-08-03T04:31:39.224Z,72586.44
2022-08-03T04:32:14.739Z,72582.44
2022-08-03T04:32:51.853Z,72580.44
2022-08-03T04:33:29.590Z,72588.41
2022-08-03T04:34:05.620Z,72586.44
2022-08-03T04:34:38.163Z,72594.41
2022-08-03T04:35:10.714Z,72598.41
2022-08-03T04:35:58.568Z,72598.41
2022-08-03T04:36:49.536Z,72598.41
2022-08-03T04:37:35.259Z,72602.38
2022-08-03T04:38:08.129Z,72602.38
2022-08-03T04:39:03.416Z,72606.38
2022-08-03T04:39:36.586Z,72606.38
2022-08-03T04:40:11.739Z,72598.41
2022-08-03T04:40:47.188Z,72598.41
2022-08-03T04:41:20.422Z,72598.41
2022-08-03T04:42:07.113Z,72606.38
2022-08-03T04:42:44.000Z,72606.38
2022-08-03T04:43:17.651Z,72610.38
2022-08-03T04:43:51.944Z,72602.38
2022-08-03T04:44:28.207Z,72606.38
2022-08-03T04:45:03.550Z,72608.38
2022-08-03T04:45:36.583Z,72612.38
2022-08-03T04:46:11.651Z,72612.38
2022-08-03T04:46:50.436Z,72614.38
2022-08-03T04:47:25.247Z,72614.38
2022-08-03T04:48:03.115Z,72614.38
2022-08-03T04:48:39.174Z,72614.38
2022-08-03T04:49:13.780Z,72614.38
2022-08-03T04:49:49.083Z,72618.34
2022-08-03T04:50:22.291Z,72614.38
2022-08-03T04:51:11.041Z,72610.38
2022-08-03T04:51:46.122Z,72618.34
2022-08-03T04:52:18.799Z,72618.34
2022-08-03T04:52:51.232Z,72614.38
2022-08-03T04:53:26.234Z,72618.34
2022-08-03T04:53:59.607Z,72616.38
2022-08-03T04:54:32.614Z,72616.38
2022-08-03T04:55:08.655Z,72618.34
2022-08-03T04:55:41.058Z,72618.34
2022-08-03T04:56:13.470Z,72618.34
2022-08-03T04:56:48.469Z,72622.34
2022-08-03T04:57:22.104Z,72622.34
2022-08-03T04:57:56.176Z,72622.34
2022-08-03T04:58:31.312Z,72622.34
2022-08-03T04:59:03.699Z,72616.38
2022-08-03T04:59:36.147Z,72622.34
2022-08-03T05:00:18.016Z,72624.34
2022-08-03T05:00:52.254Z,72628.34
2022-08-03T05:01:24.740Z,72626.34
2022-08-03T05:01:59.859Z,72622.34
2022-08-03T05:02:32.572Z,72622.34
2022-08-03T05:03:20.560Z,72622.34
2022-08-03T05:04:01.995Z,72622.34
2022-08-03T05:04:34.378Z,72622.34
2022-08-03T05:05:07.724Z,72626.34
2022-08-03T05:05:50.025Z,72622.34
2022-08-03T05:06:25.013Z,72620.34
2022-08-03T05:06:57.627Z,72622.34
2022-08-03T05:07:35.424Z,72622.34
2022-08-03T05:08:11.092Z,72626.34
2022-08-03T05:08:48.728Z,72626.34
2022-08-03T05:09:45.056Z,72628.34
2022-08-03T05:10:16.844Z,72630.34
2022-08-03T05:10:49.295Z,72624.34
2022-08-03T05:11:21.731Z,72626.34
2022-08-03T05:11:56.735Z,72624.34
2022-08-03T05:12:32.852Z,72626.34
2022-08-03T05:13:05.822Z,72622.34
2022-08-03T05:13:40.841Z,72628.34
2022-08-03T05:14:13.303Z,72626.34
2022-08-03T05:14:45.705Z,72630.34
2022-08-03T05:15:20.818Z,72626.34
2022-08-03T05:15:53.190Z,72626.34
2022-08-03T05:16:26.047Z,72622.34
2022-08-03T05:17:01.006Z,72624.34
2022-08-03T05:17:34.156Z,72628.34
2022-08-03T05:18:10.667Z,72628.34
2022-08-03T05:18:48.895Z,72626.34
2022-08-03T05:19:24.147Z,72626.34
2022-08-03T05:19:56.727Z,72630.34
2022-08-03T05:20:31.710Z,72626.34
2022-08-03T05:21:05.103Z,72630.34
2022-08-03T05:21:52.242Z,72626.34
2022-08-03T05:22:25.159Z,72626.34
2022-08-03T05:22:57.588Z,72626.34
2022-08-03T05:23:32.637Z,72626.34
2022-08-03T05:24:05.566Z,72624.34
2022-08-03T05:24:37.976Z,72622.34
2022-08-03T05:25:17.009Z,72626.34
2022-08-03T05:25:51.652Z,72628.34
2022-08-03T05:26:24.019Z,72628.34
2022-08-03T05:26:58.984Z,72626.34
2022-08-03T05:27:31.445Z,72622.34
2022-08-03T05:28:04.374Z,72620.34
2022-08-03T05:28:39.395Z,72624.34
2022-08-03T05:29:20.607Z,72624.34
2022-08-03T05:29:52.987Z,72626.34
2022-08-03T05:30:33.797Z,72626.34
2022-08-03T05:31:06.862Z,72626.34
2022-08-03T05:31:39.277Z,72620.34
2022-08-03T05:32:15.230Z,72622.34
2022-08-03T05:32:47.714Z,72626.34
2022-08-03T05:33:20.140Z,72622.34
2022-08-03T05:33:55.415Z,72624.34
2022-08-03T05:34:30.422Z,72622.34
2022-08-03T05:36:01.412Z,72618.34
2022-08-03T05:36:03.518Z,72620.34
2022-08-03T05:36:36.763Z,72618.34
2022-08-03T05:37:09.516Z,72622.34
2022-08-03T05:37:54.436Z,72618.34
2022-08-03T05:38:28.901Z,72618.34
2022-08-03T05:39:09.464Z,72622.34
2022-08-03T05:39:41.845Z,72626.34
2022-08-03T05:40:14.781Z,72626.34
2022-08-03T05:40:57.143Z,72626.34
2022-08-03T05:41:42.191Z,72622.34
2022-08-03T05:42:18.647Z,72628.34
2022-08-03T05:42:51.062Z,72622.34
2022-08-03T05:43:23.429Z,72630.34
2022-08-03T05:43:58.939Z,72624.34
2022-08-03T05:44:31.852Z,72630.34
2022-08-03T05:45:13.026Z,72626.34
2022-08-03T05:45:48.342Z,72622.34
2022-08-03T05:46:40.786Z,72622.34
2022-08-03T05:47:15.826Z,72622.34
2022-08-03T05:47:48.202Z,72626.34
2022-08-03T05:48:20.608Z,72624.34
2022-08-03T05:48:55.678Z,72630.34
2022-08-03T05:49:30.821Z,72630.34
2022-08-03T05:50:06.523Z,72622.34
2022-08-03T05:50:42.962Z,72626.34
2022-08-03T05:51:15.439Z,72626.34
2022-08-03T05:51:47.830Z,72624.34
2022-08-03T05:52:34.871Z,72626.34
2022-08-03T05:53:07.523Z,72626.34
2022-08-03T05:53:40.410Z,72626.34
2022-08-03T05:54:15.420Z,72626.34
2022-08-03T05:54:56.031Z,72618.34
2022-08-03T05:55:30.355Z,72620.34
2022-08-03T05:56:15.365Z,72622.34
2022-08-03T05:56:48.540Z,72620.34
2022-08-03T05:57:23.576Z,72622.34
2022-08-03T05:57:56.844Z,72622.34
2022-08-03T05:58:30.072Z,72620.34
2022-08-03T05:59:35.481Z,72622.34
2022-08-03T05:59:58.322Z,72626.34
2022-08-03T06:00:34.098Z,72626.34
2022-08-03T06:01:06.571Z,72622.34
2022-08-03T06:01:39.070Z,72622.34
2022-08-03T06:02:14.384Z,72626.34
2022-08-03T06:02:46.858Z,72626.34
2022-08-03T06:03:20.242Z,72630.34
2022-08-03T06:03:57.281Z,72626.34
2022-08-03T06:04:32.311Z,72628.34
2022-08-03T06:05:05.724Z,72628.34
2022-08-03T06:05:43.336Z,72626.34
2022-08-03T06:06:32.096Z,72630.34
2022-08-03T06:07:07.378Z,72624.34
2022-08-03T06:07:39.767Z,72628.34
2022-08-03T06:08:15.523Z,72626.34
2022-08-03T06:08:50.628Z,72622.34
2022-08-03T06:09:23.010Z,72626.34
2022-08-03T06:10:37.650Z,72628.34
2022-08-03T06:11:00.052Z,72630.34
2022-08-03T06:11:32.456Z,72628.34
2022-08-03T06:12:05.717Z,72620.34
2022-08-03T06:12:41.516Z,72626.34
2022-08-03T06:13:13.915Z,72624.34
2022-08-03T06:13:46.288Z,72626.34
2022-08-03T06:14:21.240Z,72622.34
2022-08-03T06:14:53.634Z,72626.34
2022-08-03T06:15:26.047Z,72622.34
2022-08-03T06:16:01.202Z,72626.34
2022-08-03T06:16:33.887Z,72624.34
2022-08-03T06:17:06.366Z,72630.34
2022-08-03T06:17:48.245Z,72630.34
2022-08-03T06:18:20.605Z,72630.34
2022-08-03T06:18:55.607Z,72632.31
2022-08-03T06:19:28.011Z,72632.31
2022-08-03T06:20:05.669Z,72628.34
2022-08-03T06:20:38.048Z,72628.34
2022-08-03T06:21:16.435Z,72622.34
2022-08-03T06:21:48.856Z,72622.34
2022-08-03T06:22:23.327Z,72620.34
2022-08-03T06:23:02.941Z,72622.34
2022-08-03T06:23:54.227Z,72620.34
2022-08-03T06:24:27.666Z,72626.34
2022-08-03T06:25:08.255Z,72624.34
2022-08-03T06:25:44.021Z,72622.34
2022-08-03T06:26:18.975Z,72626.34
2022-08-03T06:26:51.438Z,72626.34
2022-08-03T06:27:36.362Z,72622.34
2022-08-03T06:28:42.551Z,72622.34
2022-08-03T06:29:06.609Z,72626.34
2022-08-03T06:29:44.890Z,72626.34
2022-08-03T06:30:21.046Z,72628.34
2022-08-03T06:30:53.894Z,72628.34
2022-08-03T06:31:32.668Z,72630.34
2022-08-03T06:32:06.815Z,72628.34
2022-08-03T06:32:39.974Z,72630.34
2022-08-03T06:33:15.266Z,72630.34
2022-08-03T06:33:48.483Z,72630.34
2022-08-03T06:34:42.754Z,72630.34
2022-08-03T06:35:17.750Z,72634.31
2022-08-03T06:35:50.258Z,72634.31
2022-08-03T06:36:25.979Z,72636.31
2022-08-03T06:37:01.899Z,72634.31
2022-08-03T06:37:43.400Z,72638.31
2022-08-03T06:38:18.358Z,72634.31
2022-08-03T06:38:50.763Z,72638.31
2022-08-03T06:39:23.603Z,72634.31
2022-08-03T06:39:56.328Z,72636.31
2022-08-03T06:40:32.359Z,72626.34
2022-08-03T06:41:04.762Z,72632.31
2022-08-03T06:41:37.293Z,72634.31
2022-08-03T06:42:16.494Z,72638.31
2022-08-03T06:42:49.094Z,72630.34
2022-08-03T06:43:22.956Z,72630.34
2022-08-03T06:44:03.670Z,72630.34
2022-08-03T06:44:38.830Z,72634.31
2022-08-03T06:45:14.618Z,72632.31
2022-08-03T06:45:47.737Z,72628.34
2022-08-03T06:46:20.593Z,72628.34
2022-08-03T06:46:55.945Z,72628.34
2022-08-03T06:47:28.342Z,72634.31
2022-08-03T06:48:02.141Z,72638.31
2022-08-03T06:48:37.202Z,72632.31
2022-08-03T06:49:10.434Z,72638.31
2022-08-03T06:49:46.517Z,72632.31
2022-08-03T06:50:44.420Z,72628.34
2022-08-03T06:51:16.931Z,72632.31
2022-08-03T06:52:03.687Z,72632.31
2022-08-03T06:52:39.175Z,72632.31
2022-08-03T06:53:19.251Z,72630.34
2022-08-03T06:53:53.890Z,72630.34
2022-08-03T06:54:26.313Z,72632.31
2022-08-03T06:55:01.583Z,72630.34
2022-08-03T06:55:34.473Z,72626.34
2022-08-03T06:56:14.859Z,72632.31
2022-08-03T06:56:49.879Z,72626.34
2022-08-03T06:57:22.507Z,72630.34
2022-08-03T06:57:55.159Z,72630.34
2022-08-03T06:58:35.119Z,72630.34
2022-08-03T06:59:07.499Z,72632.31
2022-08-03T07:00:09.958Z,72634.31
2022-08-03T07:00:34.950Z,72634.31
2022-08-03T07:01:10.007Z,72634.31
2022-08-03T07:01:42.500Z,72638.31
2022-08-03T07:02:18.925Z,72634.31
2022-08-03T07:02:58.122Z,72636.31
2022-08-03T07:03:30.903Z,72634.31
2022-08-03T07:04:06.101Z,72634.31
2022-08-03T07:04:38.523Z,72638.31
2022-08-03T07:05:11.210Z,72634.31
2022-08-03T07:05:49.318Z,72634.31
2022-08-03T07:06:21.761Z,72634.31
2022-08-03T07:06:55.354Z,72642.31
2022-08-03T07:07:30.370Z,72630.34
2022-08-03T07:08:03.340Z,72634.31
2022-08-03T07:08:38.522Z,72640.31
2022-08-03T07:09:10.910Z,72638.31
2022-08-03T07:09:56.333Z,72638.31